sensor_id;sensor_type;location;lat;lon;timestamp;temperature;humidity
1277;DHT22;631;51.024;13.826;2023-02-15T00:01:40;2.90;99.90
1277;DHT22;631;51.024;13.826;2023-02-15T00:04:07;2.90;99.90
1277;DHT22;631;51.024;13.826;2023-02-15T00:06:33;2.80;99.90
1277;DHT22;631;51.024;13.826;2023-02-15T00:08:59;2.80;99.90
1277;DHT22;631;51.024;13.826;2023-02-15T00:11:25;2.80;99.90
1277;DHT22;631;51.024;13.826;2023-02-15T00:14:12;2.80;99.90
1277;DHT22;631;51.024;13.826;2023-02-15T00:16:40;2.80;99.90
1277;DHT22;631;51.024;13.826;2023-02-15T00:19:06;2.80;99.90
1277;DHT22;631;51.024;13.826;2023-02-15T00:21:33;2.80;99.90
1277;DHT22;631;51.024;13.826;2023-02-15T00:24:01;2.80;99.90
1277;DHT22;631;51.024;13.826;2023-02-15T00:26:27;2.80;99.90
1277;DHT22;631;51.024;13.826;2023-02-15T00:28:53;2.80;99.90
1277;DHT22;631;51.024;13.826;2023-02-15T00:31:20;2.80;99.90
1277;DHT22;631;51.024;13.826;2023-02-15T00:33:45;2.70;99.90
1277;DHT22;631;51.024;13.826;2023-02-15T00:36:12;2.70;99.90
1277;DHT22;631;51.024;13.826;2023-02-15T00:38:38;2.70;99.90
1277;DHT22;631;51.024;13.826;2023-02-15T00:41:05;2.70;99.90
1277;DHT22;631;51.024;13.826;2023-02-15T00:43:32;2.70;99.90
1277;DHT22;631;51.024;13.826;2023-02-15T00:45:58;2.70;99.90
1277;DHT22;631;51.024;13.826;2023-02-15T00:48:24;2.60;99.90
1277;DHT22;631;51.024;13.826;2023-02-15T00:50:55;2.60;99.90
1277;DHT22;631;51.024;13.826;2023-02-15T00:53:21;2.60;99.90
1277;DHT22;631;51.024;13.826;2023-02-15T00:55:47;2.60;99.90
1277;DHT22;631;51.024;13.826;2023-02-15T00:58:13;2.60;99.90
1277;DHT22;631;51.024;13.826;2023-02-15T01:00:40;2.50;99.90
1277;DHT22;631;51.024;13.826;2023-02-15T01:03:07;2.60;99.90
1277;DHT22;631;51.024;13.826;2023-02-15T01:05:33;2.50;99.90
1277;DHT22;631;51.024;13.826;2023-02-15T01:07:59;2.60;99.90
1277;DHT22;631;51.024;13.826;2023-02-15T01:10:26;2.60;99.90
1277;DHT22;631;51.024;13.826;2023-02-15T01:12:53;2.60;99.90
1277;DHT22;631;51.024;13.826;2023-02-15T01:15:19;2.60;99.90
1277;DHT22;631;51.024;13.826;2023-02-15T01:17:45;2.60;99.90
1277;DHT22;631;51.024;13.826;2023-02-15T01:20:17;2.60;99.90
1277;DHT22;631;51.024;13.826;2023-02-15T01:22:42;2.50;99.90
1277;DHT22;631;51.024;13.826;2023-02-15T01:25:08;2.50;99.90
1277;DHT22;631;51.024;13.826;2023-02-15T01:27:34;2.50;99.90
1277;DHT22;631;51.024;13.826;2023-02-15T01:29:59;2.50;99.90
1277;DHT22;631;51.024;13.826;2023-02-15T01:32:25;2.50;99.90
1277;DHT22;631;51.024;13.826;2023-02-15T01:34:52;2.50;99.90
1277;DHT22;631;51.024;13.826;2023-02-15T01:37:18;2.50;99.90
1277;DHT22;631;51.024;13.826;2023-02-15T01:39:43;2.50;99.90
1277;DHT22;631;51.024;13.826;2023-02-15T01:42:11;2.50;99.90
1277;DHT22;631;51.024;13.826;2023-02-15T01:47:32;2.40;99.90
1277;DHT22;631;51.024;13.826;2023-02-15T01:50:34;2.40;99.90
1277;DHT22;631;51.024;13.826;2023-02-15T01:53:03;2.40;99.90
1277;DHT22;631;51.024;13.826;2023-02-15T01:55:34;2.30;99.90
1277;DHT22;631;51.024;13.826;2023-02-15T01:58:01;2.30;99.90
1277;DHT22;631;51.024;13.826;2023-02-15T02:00:28;2.30;99.90
1277;DHT22;631;51.024;13.826;2023-02-15T02:02:55;2.30;99.90
1277;DHT22;631;51.024;13.826;2023-02-15T02:05:22;2.30;99.90
1277;DHT22;631;51.024;13.826;2023-02-15T02:07:50;2.30;99.90
1277;DHT22;631;51.024;13.826;2023-02-15T02:10:20;2.30;99.90
1277;DHT22;631;51.024;13.826;2023-02-15T02:12:47;2.30;99.90
1277;DHT22;631;51.024;13.826;2023-02-15T02:15:15;2.30;99.90
1277;DHT22;631;51.024;13.826;2023-02-15T02:20:58;2.30;99.90
1277;DHT22;631;51.024;13.826;2023-02-15T02:23:45;2.30;99.90
1277;DHT22;631;51.024;13.826;2023-02-15T02:36:52;2.20;99.90
1277;DHT22;631;51.024;13.826;2023-02-15T02:44:44;2.20;99.90
1277;DHT22;631;51.024;13.826;2023-02-15T02:47:18;2.30;99.90
1277;DHT22;631;51.024;13.826;2023-02-15T02:49:45;2.20;99.90
1277;DHT22;631;51.024;13.826;2023-02-15T02:52:45;2.20;99.90
1277;DHT22;631;51.024;13.826;2023-02-15T03:00:18;2.10;99.90
1277;DHT22;631;51.024;13.826;2023-02-15T03:02:47;2.10;99.90
1277;DHT22;631;51.024;13.826;2023-02-15T03:05:18;2.10;99.90
1277;DHT22;631;51.024;13.826;2023-02-15T03:07:48;2.10;99.90
1277;DHT22;631;51.024;13.826;2023-02-15T03:10:16;2.00;99.90
1277;DHT22;631;51.024;13.826;2023-02-15T03:12:43;2.00;99.90
1277;DHT22;631;51.024;13.826;2023-02-15T03:15:23;2.10;99.90
1277;DHT22;631;51.024;13.826;2023-02-15T03:17:56;2.00;99.90
1277;DHT22;631;51.024;13.826;2023-02-15T03:20:27;2.00;99.90
1277;DHT22;631;51.024;13.826;2023-02-15T03:23:21;2.00;99.90
1277;DHT22;631;51.024;13.826;2023-02-15T03:25:51;2.00;99.90
1277;DHT22;631;51.024;13.826;2023-02-15T03:28:25;2.00;99.90
1277;DHT22;631;51.024;13.826;2023-02-15T03:30:55;2.00;99.90
1277;DHT22;631;51.024;13.826;2023-02-15T03:33:23;2.00;99.90
1277;DHT22;631;51.024;13.826;2023-02-15T03:36:47;2.00;99.90
1277;DHT22;631;51.024;13.826;2023-02-15T03:41:47;2.00;99.90
1277;DHT22;631;51.024;13.826;2023-02-15T03:44:21;2.00;99.90
1277;DHT22;631;51.024;13.826;2023-02-15T03:49:26;1.90;99.90
1277;DHT22;631;51.024;13.826;2023-02-15T03:51:55;1.90;99.90
1277;DHT22;631;51.024;13.826;2023-02-15T03:54:26;1.90;99.90
1277;DHT22;631;51.024;13.826;2023-02-15T03:57:18;2.00;99.90
1277;DHT22;631;51.024;13.826;2023-02-15T04:00:23;1.90;99.90
1277;DHT22;631;51.024;13.826;2023-02-15T04:03:20;1.90;99.90
1277;DHT22;631;51.024;13.826;2023-02-15T04:05:47;1.90;99.90
1277;DHT22;631;51.024;13.826;2023-02-15T04:08:13;1.80;99.90
1277;DHT22;631;51.024;13.826;2023-02-15T04:10:38;1.80;99.90
1277;DHT22;631;51.024;13.826;2023-02-15T04:13:30;1.80;99.90
1277;DHT22;631;51.024;13.826;2023-02-15T04:15:56;1.90;99.90
1277;DHT22;631;51.024;13.826;2023-02-15T04:21:15;1.90;99.90
1277;DHT22;631;51.024;13.826;2023-02-15T04:23:59;1.90;99.90
1277;DHT22;631;51.024;13.826;2023-02-15T04:26:43;1.90;99.90
1277;DHT22;631;51.024;13.826;2023-02-15T04:29:09;1.90;99.90
1277;DHT22;631;51.024;13.826;2023-02-15T04:31:35;1.90;99.90
1277;DHT22;631;51.024;13.826;2023-02-15T04:34:00;1.90;99.90
1277;DHT22;631;51.024;13.826;2023-02-15T04:36:26;1.90;99.90
1277;DHT22;631;51.024;13.826;2023-02-15T04:38:51;1.90;99.90
1277;DHT22;631;51.024;13.826;2023-02-15T04:41:17;1.90;99.90
1277;DHT22;631;51.024;13.826;2023-02-15T04:43:43;1.90;99.90
1277;DHT22;631;51.024;13.826;2023-02-15T04:46:08;1.90;99.90
1277;DHT22;631;51.024;13.826;2023-02-15T04:48:34;1.80;99.90
1277;DHT22;631;51.024;13.826;2023-02-15T04:51:05;1.80;99.90
1277;DHT22;631;51.024;13.826;2023-02-15T04:53:31;1.80;99.90
1277;DHT22;631;51.024;13.826;2023-02-15T04:55:56;1.80;99.90
1277;DHT22;631;51.024;13.826;2023-02-15T04:58:22;1.90;99.90
1277;DHT22;631;51.024;13.826;2023-02-15T05:00:48;1.80;99.90
1277;DHT22;631;51.024;13.826;2023-02-15T05:03:13;1.80;99.90
1277;DHT22;631;51.024;13.826;2023-02-15T05:05:39;1.80;99.90
1277;DHT22;631;51.024;13.826;2023-02-15T05:08:05;1.80;99.90
1277;DHT22;631;51.024;13.826;2023-02-15T05:10:31;1.70;99.90
1277;DHT22;631;51.024;13.826;2023-02-15T05:12:57;1.70;99.90
1277;DHT22;631;51.024;13.826;2023-02-15T05:15:22;1.70;99.90
1277;DHT22;631;51.024;13.826;2023-02-15T05:17:48;1.70;99.90
1277;DHT22;631;51.024;13.826;2023-02-15T05:20:13;1.80;99.90
1277;DHT22;631;51.024;13.826;2023-02-15T05:22:39;1.80;99.90
1277;DHT22;631;51.024;13.826;2023-02-15T05:25:07;1.70;99.90
1277;DHT22;631;51.024;13.826;2023-02-15T05:27:51;1.80;99.90
1277;DHT22;631;51.024;13.826;2023-02-15T05:30:35;1.80;99.90
1277;DHT22;631;51.024;13.826;2023-02-15T05:33:01;1.80;99.90
1277;DHT22;631;51.024;13.826;2023-02-15T05:35:27;1.80;99.90
1277;DHT22;631;51.024;13.826;2023-02-15T05:37:52;1.80;99.90
1277;DHT22;631;51.024;13.826;2023-02-15T05:40:18;1.80;99.90
1277;DHT22;631;51.024;13.826;2023-02-15T05:42:44;1.80;99.90
1277;DHT22;631;51.024;13.826;2023-02-15T05:45:09;1.70;99.90
1277;DHT22;631;51.024;13.826;2023-02-15T05:47:35;1.70;99.90
1277;DHT22;631;51.024;13.826;2023-02-15T05:50:00;1.70;99.90
1277;DHT22;631;51.024;13.826;2023-02-15T05:52:26;1.60;99.90
1277;DHT22;631;51.024;13.826;2023-02-15T05:54:52;1.60;99.90
1277;DHT22;631;51.024;13.826;2023-02-15T05:57:17;1.70;99.90
1277;DHT22;631;51.024;13.826;2023-02-15T05:59:43;1.60;99.90
1277;DHT22;631;51.024;13.826;2023-02-15T06:02:08;1.60;99.90
1277;DHT22;631;51.024;13.826;2023-02-15T06:04:34;1.60;99.90
1277;DHT22;631;51.024;13.826;2023-02-15T06:06:59;1.60;99.90
1277;DHT22;631;51.024;13.826;2023-02-15T06:09:25;1.60;99.90
1277;DHT22;631;51.024;13.826;2023-02-15T06:11:51;1.60;99.90
1277;DHT22;631;51.024;13.826;2023-02-15T06:14:16;1.60;99.90
1277;DHT22;631;51.024;13.826;2023-02-15T06:16:42;1.60;99.90
1277;DHT22;631;51.024;13.826;2023-02-15T06:19:08;1.50;99.90
1277;DHT22;631;51.024;13.826;2023-02-15T06:21:33;1.50;99.90
1277;DHT22;631;51.024;13.826;2023-02-15T06:23:59;1.50;99.90
1277;DHT22;631;51.024;13.826;2023-02-15T06:26:24;1.50;99.90
1277;DHT22;631;51.024;13.826;2023-02-15T06:28:50;1.50;99.90
1277;DHT22;631;51.024;13.826;2023-02-15T06:31:15;1.50;99.90
1277;DHT22;631;51.024;13.826;2023-02-15T06:33:41;1.60;99.90
1277;DHT22;631;51.024;13.826;2023-02-15T06:36:07;1.50;99.90
1277;DHT22;631;51.024;13.826;2023-02-15T06:38:32;1.50;99.90
1277;DHT22;631;51.024;13.826;2023-02-15T06:40:58;1.50;99.90
1277;DHT22;631;51.024;13.826;2023-02-15T06:43:26;1.50;99.90
1277;DHT22;631;51.024;13.826;2023-02-15T06:45:52;1.50;99.90
1277;DHT22;631;51.024;13.826;2023-02-15T06:48:18;1.60;99.90
1277;DHT22;631;51.024;13.826;2023-02-15T06:50:43;1.60;99.90
1277;DHT22;631;51.024;13.826;2023-02-15T06:53:09;1.60;99.90
1277;DHT22;631;51.024;13.826;2023-02-15T06:55:34;1.60;99.90
1277;DHT22;631;51.024;13.826;2023-02-15T06:58:00;1.60;99.90
1277;DHT22;631;51.024;13.826;2023-02-15T07:00:25;1.70;99.90
1277;DHT22;631;51.024;13.826;2023-02-15T07:02:55;1.70;99.90
1277;DHT22;631;51.024;13.826;2023-02-15T07:05:22;1.70;99.90
1277;DHT22;631;51.024;13.826;2023-02-15T07:07:47;1.70;99.90
1277;DHT22;631;51.024;13.826;2023-02-15T07:10:13;1.80;99.90
1277;DHT22;631;51.024;13.826;2023-02-15T07:12:39;1.80;99.90
1277;DHT22;631;51.024;13.826;2023-02-15T07:15:15;1.80;99.90
1277;DHT22;631;51.024;13.826;2023-02-15T07:17:42;1.80;99.90
1277;DHT22;631;51.024;13.826;2023-02-15T07:20:14;1.80;99.90
1277;DHT22;631;51.024;13.826;2023-02-15T07:22:40;1.90;99.90
1277;DHT22;631;51.024;13.826;2023-02-15T07:25:08;1.90;99.90
1277;DHT22;631;51.024;13.826;2023-02-15T07:27:34;1.90;99.90
1277;DHT22;631;51.024;13.826;2023-02-15T07:30:00;2.00;99.90
1277;DHT22;631;51.024;13.826;2023-02-15T07:32:32;2.10;99.90
1277;DHT22;631;51.024;13.826;2023-02-15T07:34:58;2.10;99.90
1277;DHT22;631;51.024;13.826;2023-02-15T07:37:25;2.10;99.90
1277;DHT22;631;51.024;13.826;2023-02-15T07:39:51;2.20;99.90
1277;DHT22;631;51.024;13.826;2023-02-15T07:42:17;2.20;99.90
1277;DHT22;631;51.024;13.826;2023-02-15T07:44:45;2.30;99.90
1277;DHT22;631;51.024;13.826;2023-02-15T07:47:10;2.30;99.90
1277;DHT22;631;51.024;13.826;2023-02-15T07:49:37;2.40;99.90
1277;DHT22;631;51.024;13.826;2023-02-15T07:52:03;2.50;99.90
1277;DHT22;631;51.024;13.826;2023-02-15T07:54:29;2.50;99.90
1277;DHT22;631;51.024;13.826;2023-02-15T07:56:55;2.50;99.90
1277;DHT22;631;51.024;13.826;2023-02-15T07:59:20;2.70;99.90
1277;DHT22;631;51.024;13.826;2023-02-15T08:01:46;2.70;99.90
1277;DHT22;631;51.024;13.826;2023-02-15T08:04:11;2.90;99.90
1277;DHT22;631;51.024;13.826;2023-02-15T08:06:38;3.00;99.90
1277;DHT22;631;51.024;13.826;2023-02-15T08:09:06;2.80;99.90
1277;DHT22;631;51.024;13.826;2023-02-15T08:11:33;3.40;99.90
1277;DHT22;631;51.024;13.826;2023-02-15T08:14:13;3.60;99.90
1277;DHT22;631;51.024;13.826;2023-02-15T08:16:41;4.00;99.90
1277;DHT22;631;51.024;13.826;2023-02-15T08:19:11;4.40;99.90
1277;DHT22;631;51.024;13.826;2023-02-15T08:21:39;4.90;99.90
1277;DHT22;631;51.024;13.826;2023-02-15T08:24:06;5.30;99.90
1277;DHT22;631;51.024;13.826;2023-02-15T08:26:33;5.60;99.90
1277;DHT22;631;51.024;13.826;2023-02-15T08:29:00;6.10;99.90
1277;DHT22;631;51.024;13.826;2023-02-15T08:31:26;6.40;99.90
1277;DHT22;631;51.024;13.826;2023-02-15T08:33:54;6.70;99.90
1277;DHT22;631;51.024;13.826;2023-02-15T08:36:22;7.00;99.90
1277;DHT22;631;51.024;13.826;2023-02-15T08:38:48;7.20;99.90
1277;DHT22;631;51.024;13.826;2023-02-15T08:41:22;7.20;99.90
1277;DHT22;631;51.024;13.826;2023-02-15T08:43:51;7.40;99.90
1277;DHT22;631;51.024;13.826;2023-02-15T08:46:18;7.60;99.90
1277;DHT22;631;51.024;13.826;2023-02-15T08:48:44;7.90;99.90
1277;DHT22;631;51.024;13.826;2023-02-15T08:51:15;8.30;99.90
1277;DHT22;631;51.024;13.826;2023-02-15T08:53:44;8.60;99.90
1277;DHT22;631;51.024;13.826;2023-02-15T08:56:10;8.80;99.90
1277;DHT22;631;51.024;13.826;2023-02-15T08:58:36;9.10;99.90
1277;DHT22;631;51.024;13.826;2023-02-15T09:01:09;9.60;99.10
1277;DHT22;631;51.024;13.826;2023-02-15T09:03:34;9.70;98.10
1277;DHT22;631;51.024;13.826;2023-02-15T09:06:01;10.10;95.10
1277;DHT22;631;51.024;13.826;2023-02-15T09:08:27;9.90;94.30
1277;DHT22;631;51.024;13.826;2023-02-15T09:10:53;9.90;95.90
1277;DHT22;631;51.024;13.826;2023-02-15T09:13:19;10.40;93.80
1277;DHT22;631;51.024;13.826;2023-02-15T09:15:46;10.70;91.90
1277;DHT22;631;51.024;13.826;2023-02-15T09:18:11;10.90;91.30
1277;DHT22;631;51.024;13.826;2023-02-15T09:20:43;10.70;88.10
1277;DHT22;631;51.024;13.826;2023-02-15T09:23:08;11.00;87.90
1277;DHT22;631;51.024;13.826;2023-02-15T09:25:34;11.50;86.70
1277;DHT22;631;51.024;13.826;2023-02-15T09:28:00;11.20;83.80
1277;DHT22;631;51.024;13.826;2023-02-15T09:30:25;11.30;85.00
1277;DHT22;631;51.024;13.826;2023-02-15T09:32:51;11.70;84.70
1277;DHT22;631;51.024;13.826;2023-02-15T09:35:17;12.00;82.80
1277;DHT22;631;51.024;13.826;2023-02-15T09:37:42;12.00;78.90
1277;DHT22;631;51.024;13.826;2023-02-15T09:40:08;12.40;75.50
1277;DHT22;631;51.024;13.826;2023-02-15T09:43:10;12.40;74.80
1277;DHT22;631;51.024;13.826;2023-02-15T09:45:58;12.70;74.30
1277;DHT22;631;51.024;13.826;2023-02-15T09:48:41;12.60;69.00
1277;DHT22;631;51.024;13.826;2023-02-15T09:54:03;13.00;70.00
1277;DHT22;631;51.024;13.826;2023-02-15T09:56:43;13.00;68.20
1277;DHT22;631;51.024;13.826;2023-02-15T09:59:28;13.10;66.00
1277;DHT22;631;51.024;13.826;2023-02-15T10:02:07;13.30;66.70
1277;DHT22;631;51.024;13.826;2023-02-15T10:07:18;13.00;66.60
1277;DHT22;631;51.024;13.826;2023-02-15T10:26:28;15.00;55.70
1277;DHT22;631;51.024;13.826;2023-02-15T10:29:09;15.00;56.80
1277;DHT22;631;51.024;13.826;2023-02-15T10:32:14;15.00;55.20
1277;DHT22;631;51.024;13.826;2023-02-15T10:35:08;15.20;55.80
1277;DHT22;631;51.024;13.826;2023-02-15T10:40:32;15.30;52.20
1277;DHT22;631;51.024;13.826;2023-02-15T10:51:10;15.70;51.70
1277;DHT22;631;51.024;13.826;2023-02-15T10:54:04;15.80;52.00
1277;DHT22;631;51.024;13.826;2023-02-15T10:56:38;15.90;51.10
1277;DHT22;631;51.024;13.826;2023-02-15T11:07:59;16.20;48.50
1277;DHT22;631;51.024;13.826;2023-02-15T11:10:51;16.40;47.90
1277;DHT22;631;51.024;13.826;2023-02-15T11:13:19;16.20;47.20
1277;DHT22;631;51.024;13.826;2023-02-15T11:15:55;16.10;48.40
1277;DHT22;631;51.024;13.826;2023-02-15T11:18:50;16.30;47.80
1277;DHT22;631;51.024;13.826;2023-02-15T11:21:22;16.70;46.50
1277;DHT22;631;51.024;13.826;2023-02-15T11:23:51;16.40;45.80
1277;DHT22;631;51.024;13.826;2023-02-15T11:28:54;16.40;46.40
1277;DHT22;631;51.024;13.826;2023-02-15T11:31:23;16.40;46.90
1277;DHT22;631;51.024;13.826;2023-02-15T11:33:59;16.60;47.00
1277;DHT22;631;51.024;13.826;2023-02-15T11:36:29;16.60;45.90
1277;DHT22;631;51.024;13.826;2023-02-15T11:39:14;16.30;45.70
1277;DHT22;631;51.024;13.826;2023-02-15T11:41:47;16.60;45.80
1277;DHT22;631;51.024;13.826;2023-02-15T11:44:41;16.90;45.30
1277;DHT22;631;51.024;13.826;2023-02-15T11:47:11;17.30;43.80
1277;DHT22;631;51.024;13.826;2023-02-15T11:49:37;17.00;43.80
1277;DHT22;631;51.024;13.826;2023-02-15T11:52:15;16.70;44.40
1277;DHT22;631;51.024;13.826;2023-02-15T11:54:51;16.80;45.90
1277;DHT22;631;51.024;13.826;2023-02-15T11:57:33;17.30;45.60
1277;DHT22;631;51.024;13.826;2023-02-15T12:02:31;17.50;43.20
1277;DHT22;631;51.024;13.826;2023-02-15T12:05:06;17.20;43.10
1277;DHT22;631;51.024;13.826;2023-02-15T12:07:36;17.60;43.20
1277;DHT22;631;51.024;13.826;2023-02-15T12:10:23;18.00;42.80
1277;DHT22;631;51.024;13.826;2023-02-15T12:13:13;18.20;41.10
1277;DHT22;631;51.024;13.826;2023-02-15T12:15:43;18.10;40.90
1277;DHT22;631;51.024;13.826;2023-02-15T12:20:48;17.80;41.00
1277;DHT22;631;51.024;13.826;2023-02-15T12:23:15;17.90;39.60
1277;DHT22;631;51.024;13.826;2023-02-15T12:25:53;17.30;38.80
1277;DHT22;631;51.024;13.826;2023-02-15T12:28:31;16.90;40.80
1277;DHT22;631;51.024;13.826;2023-02-15T12:30:58;17.00;41.50
1277;DHT22;631;51.024;13.826;2023-02-15T12:33:41;17.10;41.20
1277;DHT22;631;51.024;13.826;2023-02-15T12:36:22;16.90;41.80
1277;DHT22;631;51.024;13.826;2023-02-15T12:41:44;17.00;40.90
1277;DHT22;631;51.024;13.826;2023-02-15T12:44:34;16.60;41.00
1277;DHT22;631;51.024;13.826;2023-02-15T12:47:10;16.70;41.90
1277;DHT22;631;51.024;13.826;2023-02-15T12:49:43;16.80;41.60
1277;DHT22;631;51.024;13.826;2023-02-15T12:54:47;16.30;41.20
1277;DHT22;631;51.024;13.826;2023-02-15T12:57:28;16.10;42.30
1277;DHT22;631;51.024;13.826;2023-02-15T12:59:59;16.20;42.10
1277;DHT22;631;51.024;13.826;2023-02-15T13:04:51;16.00;42.80
1277;DHT22;631;51.024;13.826;2023-02-15T13:07:18;15.80;43.10
1277;DHT22;631;51.024;13.826;2023-02-15T13:09:44;15.70;43.60
1277;DHT22;631;51.024;13.826;2023-02-15T13:14:47;15.90;43.40
1277;DHT22;631;51.024;13.826;2023-02-15T13:17:16;15.90;43.30
1277;DHT22;631;51.024;13.826;2023-02-15T13:19:51;15.50;43.50
1277;DHT22;631;51.024;13.826;2023-02-15T13:22:27;15.90;43.30
1277;DHT22;631;51.024;13.826;2023-02-15T13:24:58;16.00;42.60
1277;DHT22;631;51.024;13.826;2023-02-15T13:27:32;16.00;42.30
1277;DHT22;631;51.024;13.826;2023-02-15T13:30:03;16.30;42.30
1277;DHT22;631;51.024;13.826;2023-02-15T13:32:38;16.10;41.60
1277;DHT22;631;51.024;13.826;2023-02-15T13:35:14;16.40;42.10
1277;DHT22;631;51.024;13.826;2023-02-15T13:37:54;16.40;41.90
1277;DHT22;631;51.024;13.826;2023-02-15T13:43:13;16.00;41.70
1277;DHT22;631;51.024;13.826;2023-02-15T13:48:33;15.60;41.80
1277;DHT22;631;51.024;13.826;2023-02-15T13:51:45;15.70;42.00
1277;DHT22;631;51.024;13.826;2023-02-15T13:59:50;15.90;41.90
1277;DHT22;631;51.024;13.826;2023-02-15T14:08:01;16.00;41.80
1277;DHT22;631;51.024;13.826;2023-02-15T14:21:40;14.00;46.90
1277;DHT22;631;51.024;13.826;2023-02-15T14:24:29;13.80;46.70
1277;DHT22;631;51.024;13.826;2023-02-15T14:27:26;13.70;47.40
1277;DHT22;631;51.024;13.826;2023-02-15T14:30:00;13.10;47.20
1277;DHT22;631;51.024;13.826;2023-02-15T14:32:35;13.10;48.30
1277;DHT22;631;51.024;13.826;2023-02-15T14:35:14;12.60;49.10
1277;DHT22;631;51.024;13.826;2023-02-15T14:49:25;11.80;54.20
1277;DHT22;631;51.024;13.826;2023-02-15T14:56:46;11.70;57.20
1277;DHT22;631;51.024;13.826;2023-02-15T14:59:18;11.70;56.90
1277;DHT22;631;51.024;13.826;2023-02-15T15:02:15;11.70;57.60
1277;DHT22;631;51.024;13.826;2023-02-15T15:04:46;11.50;57.40
1277;DHT22;631;51.024;13.826;2023-02-15T15:07:24;11.40;58.20
1277;DHT22;631;51.024;13.826;2023-02-15T15:14:58;10.30;62.00
1277;DHT22;631;51.024;13.826;2023-02-15T15:17:51;10.20;65.00
1277;DHT22;631;51.024;13.826;2023-02-15T15:25:42;9.60;72.40
1277;DHT22;631;51.024;13.826;2023-02-15T15:28:08;9.50;74.70
1277;DHT22;631;51.024;13.826;2023-02-15T15:33:25;9.10;79.50
1277;DHT22;631;51.024;13.826;2023-02-15T15:49:50;6.90;97.10
1277;DHT22;631;51.024;13.826;2023-02-15T15:52:21;6.70;99.30
1277;DHT22;631;51.024;13.826;2023-02-15T15:54:51;6.50;99.90
1277;DHT22;631;51.024;13.826;2023-02-15T15:59:56;6.10;99.90
1277;DHT22;631;51.024;13.826;2023-02-15T16:02:25;6.00;99.90
1277;DHT22;631;51.024;13.826;2023-02-15T16:04:51;5.80;99.90
1277;DHT22;631;51.024;13.826;2023-02-15T16:09:56;5.30;99.90
1277;DHT22;631;51.024;13.826;2023-02-15T16:12:23;5.10;99.90
1277;DHT22;631;51.024;13.826;2023-02-15T16:14:49;4.90;99.90
1277;DHT22;631;51.024;13.826;2023-02-15T16:17:23;4.80;99.90
1277;DHT22;631;51.024;13.826;2023-02-15T16:19:49;4.70;99.90
1277;DHT22;631;51.024;13.826;2023-02-15T16:22:21;4.60;99.90
1277;DHT22;631;51.024;13.826;2023-02-15T16:27:27;4.30;99.90
1277;DHT22;631;51.024;13.826;2023-02-15T16:29:53;4.20;99.90
1277;DHT22;631;51.024;13.826;2023-02-15T16:32:26;4.00;99.90
1277;DHT22;631;51.024;13.826;2023-02-15T16:34:58;3.90;99.90
1277;DHT22;631;51.024;13.826;2023-02-15T16:37:32;3.80;99.90
1277;DHT22;631;51.024;13.826;2023-02-15T16:39:58;3.70;99.90
1277;DHT22;631;51.024;13.826;2023-02-15T16:42:24;3.60;99.90
1277;DHT22;631;51.024;13.826;2023-02-15T16:44:55;3.60;99.90
1277;DHT22;631;51.024;13.826;2023-02-15T16:47:29;3.50;99.90
1277;DHT22;631;51.024;13.826;2023-02-15T16:50:02;3.50;99.90
1277;DHT22;631;51.024;13.826;2023-02-15T16:52:28;3.40;99.90
1277;DHT22;631;51.024;13.826;2023-02-15T16:55:02;3.40;99.90
1277;DHT22;631;51.024;13.826;2023-02-15T16:57:32;3.30;99.90
1277;DHT22;631;51.024;13.826;2023-02-15T17:00:24;3.30;99.90
1277;DHT22;631;51.024;13.826;2023-02-15T17:05:20;3.20;99.90
1277;DHT22;631;51.024;13.826;2023-02-15T17:08:41;3.10;99.90
1277;DHT22;631;51.024;13.826;2023-02-15T17:10:39;3.10;99.90
1277;DHT22;631;51.024;13.826;2023-02-15T17:13:11;3.00;99.90
1277;DHT22;631;51.024;13.826;2023-02-15T17:15:39;2.90;99.90
1277;DHT22;631;51.024;13.826;2023-02-15T17:20:41;2.80;99.90
1277;DHT22;631;51.024;13.826;2023-02-15T17:23:28;2.80;99.90
1277;DHT22;631;51.024;13.826;2023-02-15T17:25:56;2.80;99.90
1277;DHT22;631;51.024;13.826;2023-02-15T17:28:24;2.80;99.90
1277;DHT22;631;51.024;13.826;2023-02-15T17:30:52;2.80;99.90
1277;DHT22;631;51.024;13.826;2023-02-15T17:33:35;2.80;99.90
1277;DHT22;631;51.024;13.826;2023-02-15T17:38:28;2.70;99.90
1277;DHT22;631;51.024;13.826;2023-02-15T17:40:54;2.60;99.90
1277;DHT22;631;51.024;13.826;2023-02-15T17:43:19;2.60;99.90
1277;DHT22;631;51.024;13.826;2023-02-15T17:45:49;2.50;99.90
1277;DHT22;631;51.024;13.826;2023-02-15T17:48:25;2.50;99.90
1277;DHT22;631;51.024;13.826;2023-02-15T17:50:56;2.50;99.90
1277;DHT22;631;51.024;13.826;2023-02-15T17:53:23;2.50;99.90
1277;DHT22;631;51.024;13.826;2023-02-15T17:55:50;2.50;99.90
1277;DHT22;631;51.024;13.826;2023-02-15T17:58:18;2.50;99.90
1277;DHT22;631;51.024;13.826;2023-02-15T18:00:50;2.50;99.90
1277;DHT22;631;51.024;13.826;2023-02-15T18:03:46;2.40;99.90
1277;DHT22;631;51.024;13.826;2023-02-15T18:06:31;2.40;99.90
1277;DHT22;631;51.024;13.826;2023-02-15T18:09:17;2.30;99.90
1277;DHT22;631;51.024;13.826;2023-02-15T18:12:23;2.30;99.90
1277;DHT22;631;51.024;13.826;2023-02-15T18:14:50;2.30;99.90
1277;DHT22;631;51.024;13.826;2023-02-15T18:17:16;2.30;99.90
1277;DHT22;631;51.024;13.826;2023-02-15T18:19:43;2.30;99.90
1277;DHT22;631;51.024;13.826;2023-02-15T18:22:15;2.30;99.90
1277;DHT22;631;51.024;13.826;2023-02-15T18:24:42;2.30;99.90
1277;DHT22;631;51.024;13.826;2023-02-15T18:27:10;2.30;99.90
1277;DHT22;631;51.024;13.826;2023-02-15T18:29:36;2.30;99.90
1277;DHT22;631;51.024;13.826;2023-02-15T18:32:06;2.30;99.90
1277;DHT22;631;51.024;13.826;2023-02-15T18:34:37;2.30;99.90
1277;DHT22;631;51.024;13.826;2023-02-15T18:37:05;2.20;99.90
1277;DHT22;631;51.024;13.826;2023-02-15T18:39:42;2.20;99.90
1277;DHT22;631;51.024;13.826;2023-02-15T18:44:57;2.20;99.90
1277;DHT22;631;51.024;13.826;2023-02-15T18:47:23;2.20;99.90
1277;DHT22;631;51.024;13.826;2023-02-15T18:49:50;2.20;99.90
1277;DHT22;631;51.024;13.826;2023-02-15T18:52:17;2.10;99.90
1277;DHT22;631;51.024;13.826;2023-02-15T18:54:45;2.10;99.90
1277;DHT22;631;51.024;13.826;2023-02-15T18:57:15;2.10;99.90
1277;DHT22;631;51.024;13.826;2023-02-15T18:59:41;2.10;99.90
1277;DHT22;631;51.024;13.826;2023-02-15T19:02:17;2.10;99.90
1277;DHT22;631;51.024;13.826;2023-02-15T19:04:43;2.20;99.90
1277;DHT22;631;51.024;13.826;2023-02-15T19:07:29;2.20;99.90
1277;DHT22;631;51.024;13.826;2023-02-15T19:09:58;2.10;99.90
1277;DHT22;631;51.024;13.826;2023-02-15T19:12:26;2.10;99.90
1277;DHT22;631;51.024;13.826;2023-02-15T19:14:52;2.10;99.90
1277;DHT22;631;51.024;13.826;2023-02-15T19:17:20;2.10;99.90
1277;DHT22;631;51.024;13.826;2023-02-15T19:19:47;2.00;99.90
1277;DHT22;631;51.024;13.826;2023-02-15T19:22:21;2.00;99.90
1277;DHT22;631;51.024;13.826;2023-02-15T19:24:47;2.00;99.90
1277;DHT22;631;51.024;13.826;2023-02-15T19:27:25;2.00;99.90
1277;DHT22;631;51.024;13.826;2023-02-15T19:29:53;2.00;99.90
1277;DHT22;631;51.024;13.826;2023-02-15T19:32:19;2.00;99.90
1277;DHT22;631;51.024;13.826;2023-02-15T19:34:45;2.00;99.90
1277;DHT22;631;51.024;13.826;2023-02-15T19:37:39;2.00;99.90
1277;DHT22;631;51.024;13.826;2023-02-15T19:40:05;1.90;99.90
1277;DHT22;631;51.024;13.826;2023-02-15T19:42:31;2.00;99.90
1277;DHT22;631;51.024;13.826;2023-02-15T19:44:59;1.90;99.90